Terminal Aerodrome Forecast
Issued by NWS Spokane, WA

Home | Current Version | Previous Version | Text Only | Print | Product List | Glossary On
Versions: 1 2 3 4 5 6 7 8 9 10 11 12 13 14 15 16 17 18 19 20 21 22 23 24 25 26 27 28 29 30
000
FTUS46 KOTX 030535
TAFEAT
TAF
KEAT 030535Z 0306/0406 29016G23KT P6SM FEW100
     FM030700 30015KT P6SM SCT050 BKN100
     FM031600 30011KT P6SM FEW100
     FM040200 31005KT P6SM SKC=

USA.gov is the U.S. government's official web portal to all federal, state and local government web resources and services.